Time;durP1;ratioP1;P1;durP2;ratioP2;P2;SDS_P1;SDS_P2;PMS_P1;PMS_P2;Temp;Humidity;BMP_temperature;BMP_pressure;BME280_temperature;BME280_humidity;BME280_pressure;Samples;Min_cycle;Max_cycle;Signal;HPM_P1;HPM_P2
2021/11/23 00:00:48;;;;;;;11.20;7.47;;;;;;;3.46;100.00;101035.30;1723398;83;21045;-82
2021/11/23 00:03:18;;;;;;;7.85;6.35;;;;;;;3.43;100.00;101027.26;1723273;83;21172;-81
2021/11/23 00:05:48;;;;;;;6.97;5.75;;;;;;;3.39;100.00;101034.73;1723195;83;21070;-80
2021/11/23 00:08:17;;;;;;;8.20;5.55;;;;;;;3.35;100.00;101037.47;1692437;83;21050;-81
2021/11/23 00:10:46;;;;;;;7.53;5.90;;;;;;;3.33;100.00;101041.38;1723262;83;21559;-81
2021/11/23 00:13:16;;;;;;;6.50;5.33;;;;;;;3.27;100.00;101036.46;1692204;83;21010;-80
2021/11/23 00:15:43;;;;;;;8.10;5.20;;;;;;;3.27;100.00;101036.46;1722933;83;21135;-81
2021/11/23 00:18:14;;;;;;;7.70;5.08;;;;;;;3.25;100.00;101044.68;1722908;83;21069;-80
2021/11/23 00:20:44;;;;;;;5.97;5.00;;;;;;;3.23;100.00;101035.73;1723506;83;21057;-81
2021/11/23 00:23:13;;;;;;;5.33;4.43;;;;;;;3.23;100.00;101037.48;1693559;83;21058;-81
2021/11/23 00:25:42;;;;;;;5.53;4.35;;;;;;;3.20;100.00;101035.02;1723336;83;21719;-81
2021/11/23 00:28:11;;;;;;;5.08;3.80;;;;;;;3.18;100.00;101043.23;1692266;83;21101;-81
2021/11/23 00:30:40;;;;;;;6.95;4.80;;;;;;;3.18;100.00;101043.23;1692619;83;21070;-81
2021/11/23 00:33:07;;;;;;;5.62;4.15;;;;;;;3.14;100.00;101039.52;1723284;83;21033;-81
2021/11/23 00:35:34;;;;;;;6.12;4.10;;;;;;;3.14;100.00;101039.52;1723504;83;21677;-82
2021/11/23 00:38:02;;;;;;;5.67;4.03;;;;;;;3.13;100.00;101038.26;1692173;83;21492;-83
2021/11/23 00:40:29;;;;;;;6.15;4.28;;;;;;;3.13;100.00;101038.26;1692541;83;21136;-83
2021/11/23 00:42:57;;;;;;;5.62;3.87;;;;;;;3.12;100.00;101039.18;1692444;83;21050;-83
2021/11/23 00:45:25;;;;;;;4.92;3.33;;;;;;;3.12;100.00;101041.75;1723461;83;21035;-82
2021/11/23 00:47:52;;;;;;;5.67;3.70;;;;;;;3.11;100.00;101037.50;1723088;83;21543;-81
2021/11/23 00:50:19;;;;;;;5.05;3.62;;;;;;;3.12;100.00;101037.43;1723231;83;21033;-81
2021/11/23 00:52:46;;;;;;;4.10;3.30;;;;;;;3.11;100.00;101042.19;1692427;83;21788;-79
2021/11/23 00:55:14;;;;;;;6.42;3.27;;;;;;;3.10;100.00;101046.94;1692226;83;21092;-82
2021/11/23 00:57:41;;;;;;;3.42;2.92;;;;;;;3.09;100.00;101045.25;1723245;83;21527;-81
2021/11/23 01:00:12;;;;;;;4.17;3.10;;;;;;;3.09;100.00;101038.82;1723521;83;21073;-81
2021/11/23 01:02:39;;;;;;;4.58;2.98;;;;;;;3.11;100.00;101043.94;1723530;83;21065;-81
2021/11/23 01:05:09;;;;;;;4.17;2.75;;;;;;;3.07;100.00;101044.49;1723456;83;21147;-80
2021/11/23 01:07:36;;;;;;;5.08;3.55;;;;;;;3.05;100.00;101047.56;1692393;83;20963;-81
2021/11/23 01:10:06;;;;;;;5.40;3.47;;;;;;;3.05;100.00;101046.70;1723373;83;21054;-80
2021/11/23 01:12:34;;;;;;;4.90;3.90;;;;;;;3.01;100.00;101040.84;1723408;83;21543;-80
2021/11/23 01:15:01;;;;;;;5.60;3.33;;;;;;;3.01;100.00;101040.84;1723459;83;22244;-81
2021/11/23 01:17:30;;;;;;;4.97;3.55;;;;;;;3.01;100.00;101038.27;1692583;83;21136;-80
2021/11/23 01:19:57;;;;;;;4.10;3.42;;;;;;;3.01;100.00;101043.41;1692342;83;21093;-80
2021/11/23 01:22:24;;;;;;;6.20;3.70;;;;;;;3.01;100.00;101042.12;1692496;83;21109;-81
2021/11/23 01:24:53;;;;;;;4.85;3.60;;;;;;;2.99;100.00;101038.79;1723172;83;21010;-80
2021/11/23 01:27:21;;;;;;;6.33;3.58;;;;;;;2.98;100.00;101044.83;1692375;83;21093;-81
2021/11/23 01:29:48;;;;;;;4.95;2.98;;;;;;;2.98;100.00;101044.83;1719034;83;21159;-81
2021/11/23 01:32:15;;;;;;;5.92;3.33;;;;;;;2.94;100.00;101042.81;1723683;83;21097;-80
2021/11/23 01:34:42;;;;;;;4.47;3.12;;;;;;;2.91;100.00;101045.48;1723562;83;21681;-79
2021/11/23 01:37:09;;;;;;;4.00;2.87;;;;;;;2.90;100.00;101041.23;1723579;83;21057;-80
2021/11/23 01:39:36;;;;;;;5.90;3.05;;;;;;;2.88;100.00;101039.62;1692670;83;21077;-79
2021/11/23 01:42:03;;;;;;;5.87;3.00;;;;;;;2.87;100.00;101043.08;1686614;84;21603;-80
2021/11/23 01:44:31;;;;;;;4.33;3.35;;;;;;;2.84;100.00;101043.57;1693094;84;21053;-82
2021/11/23 01:46:58;;;;;;;4.92;3.80;;;;;;;2.81;100.00;101038.55;1693269;84;21633;-83
2021/11/23 01:49:25;;;;;;;6.00;3.72;;;;;;;2.79;100.00;101039.52;1693203;84;21090;-83
2021/11/23 01:51:53;;;;;;;4.58;3.55;;;;;;;2.75;100.00;101034.92;1692925;84;21053;-82
2021/11/23 01:54:22;;;;;;;4.53;3.62;;;;;;;2.69;100.00;101023.55;1664930;86;21391;-81
2021/11/23 01:56:50;;;;;;;7.62;4.28;;;;;;;2.69;100.00;101023.55;1666734;84;21083;-80
2021/11/23 01:59:17;;;;;;;5.37;3.58;;;;;;;2.67;100.00;101024.07;1693070;84;21590;-80
2021/11/23 02:01:46;;;;;;;7.60;3.45;;;;;;;2.63;100.00;101018.62;1693059;84;21018;-81
2021/11/23 02:04:14;;;;;;;5.08;4.00;;;;;;;2.61;100.00;101020.41;1692876;84;21535;-82
2021/11/23 02:06:41;;;;;;;5.72;4.20;;;;;;;2.58;100.00;101023.93;1672115;85;21064;-82
2021/11/23 02:09:08;;;;;;;5.90;4.33;;;;;;;2.58;100.00;101023.93;1692842;84;21085;-80
2021/11/23 02:11:36;;;;;;;6.20;4.35;;;;;;;2.56;100.00;101030.02;1692777;84;21022;-80
2021/11/23 02:14:04;;;;;;;5.37;4.25;;;;;;;2.56;100.00;101030.02;1693080;84;21112;-82
2021/11/23 02:16:32;;;;;;;5.95;4.28;;;;;;;2.53;100.00;101035.66;1666650;84;21103;-81
2021/11/23 02:19:00;;;;;;;6.58;4.40;;;;;;;2.52;100.00;101037.83;1666331;84;21091;-81
2021/11/23 02:21:28;;;;;;;5.60;4.37;;;;;;;2.51;100.00;101038.75;1692895;84;21129;-81
2021/11/23 02:23:55;;;;;;;5.37;4.03;;;;;;;2.49;100.00;101036.67;1692706;84;21102;-81
2021/11/23 02:26:22;;;;;;;5.58;4.20;;;;;;;2.47;100.00;101044.88;1692587;84;21065;-81
2021/11/23 02:28:49;;;;;;;5.12;4.10;;;;;;;2.47;100.00;101046.63;1692953;84;21078;-81
2021/11/23 02:31:16;;;;;;;6.42;3.98;;;;;;;2.46;100.00;101040.63;1692211;84;22001;-80
2021/11/23 02:33:43;;;;;;;5.50;3.98;;;;;;;2.46;100.00;101039.34;1666654;84;20959;-80
2021/11/23 02:36:11;;;;;;;4.97;3.85;;;;;;;2.46;100.00;101031.62;1666186;84;21678;-81
2021/11/23 02:38:41;;;;;;;5.05;3.75;;;;;;;2.45;100.00;101031.23;1692421;84;21356;-81
2021/11/23 02:41:12;;;;;;;4.75;3.40;;;;;;;2.45;100.00;101031.23;1692648;84;21120;-80
2021/11/23 02:43:41;;;;;;;6.22;3.83;;;;;;;2.47;100.00;101033.77;1687789;84;21102;-80
2021/11/23 02:46:09;;;;;;;5.62;3.75;;;;;;;2.45;100.00;101030.40;1687328;84;21045;-83
2021/11/23 02:48:37;;;;;;;5.67;3.20;;;;;;;2.42;100.00;101033.92;1693967;84;21105;-82
2021/11/23 02:51:16;;;;;;;4.67;3.83;;;;;;;2.40;100.00;101040.84;1694125;84;21053;-81
2021/11/23 02:53:48;;;;;;;3.72;2.98;;;;;;;2.36;100.00;101040.56;1687535;84;21096;-80
2021/11/23 02:56:17;;;;;;;4.25;3.50;;;;;;;2.33;100.00;101045.80;1687661;84;22022;-81
2021/11/23 02:58:49;;;;;;;4.50;3.42;;;;;;;2.28;100.00;101046.41;1694150;84;21562;-82
2021/11/23 03:01:25;;;;;;;4.40;3.37;;;;;;;2.24;100.00;101055.09;1694635;84;21724;-80
2021/11/23 03:03:54;;;;;;;4.50;3.60;;;;;;;2.19;100.00;101050.11;1700930;83;21113;-80
2021/11/23 03:06:22;;;;;;;4.05;3.35;;;;;;;2.15;100.00;101048.08;1690101;83;21077;-79
2021/11/23 03:08:54;;;;;;;4.70;3.70;;;;;;;2.13;100.00;101043.89;1723732;83;22326;-82
2021/11/23 03:11:23;;;;;;;5.12;3.83;;;;;;;2.09;100.00;101044.44;1723037;83;21034;-80
2021/11/23 03:13:52;;;;;;;4.25;3.58;;;;;;;2.05;100.00;101047.55;1723050;83;21010;-80
2021/11/23 03:16:19;;;;;;;4.95;3.60;;;;;;;2.04;100.00;101052.75;1723248;83;21101;-79
2021/11/23 03:18:47;;;;;;;5.72;3.62;;;;;;;2.00;100.00;101057.12;1723445;83;21065;-79
2021/11/23 03:21:15;;;;;;;4.25;3.40;;;;;;;1.96;100.00;101061.15;1723504;83;21567;-79
2021/11/23 03:23:42;;;;;;;4.28;3.37;;;;;;;1.92;100.00;101055.70;1723069;83;20999;-78
2021/11/23 03:26:10;;;;;;;4.50;3.58;;;;;;;1.86;100.00;101062.72;1689299;83;22498;-81
2021/11/23 03:28:37;;;;;;;5.03;4.00;;;;;;;1.81;100.00;101067.14;1723029;83;21032;-78
2021/11/23 03:31:05;;;;;;;5.22;3.90;;;;;;;1.76;100.00;101075.44;1723343;83;21076;-78
2021/11/23 03:33:32;;;;;;;5.58;3.62;;;;;;;1.72;100.00;101089.28;1723045;83;22208;-79
2021/11/23 03:35:59;;;;;;;3.60;3.30;;;;;;;1.68;100.00;101090.24;1722979;83;21097;-79
2021/11/23 03:38:28;;;;;;;6.37;3.77;;;;;;;1.64;100.00;101092.52;1722811;83;21053;-79
2021/11/23 03:40:55;;;;;;;4.55;4.05;;;;;;;1.58;100.00;101100.78;1723466;83;21061;-79
2021/11/23 03:43:23;;;;;;;4.12;3.52;;;;;;;1.57;100.00;101099.55;1722978;83;21511;-79
2021/11/23 03:45:50;;;;;;;6.28;4.10;;;;;;;1.56;100.00;101099.98;1723236;83;21144;-78
2021/11/23 03:48:17;;;;;;;4.47;3.80;;;;;;;1.55;100.00;101099.61;1722981;83;21046;-80
2021/11/23 03:50:45;;;;;;;4.62;3.70;;;;;;;1.58;100.00;101097.39;1723155;83;21045;-79
2021/11/23 03:53:13;;;;;;;4.90;3.92;;;;;;;1.62;100.00;101098.14;1723296;83;21042;-79
2021/11/23 03:55:42;;;;;;;8.98;4.20;;;;;;;1.64;100.00;101102.79;1689274;83;21061;-79
2021/11/23 03:58:09;;;;;;;4.03;3.17;;;;;;;1.61;100.00;101099.02;1692613;83;21128;-79
2021/11/23 04:00:36;;;;;;;5.83;3.70;;;;;;;1.59;100.00;101101.64;1722745;83;21574;-79
2021/11/23 04:03:03;;;;;;;5.08;4.05;;;;;;;1.55;100.00;101095.76;1723103;83;21175;-78
2021/11/23 04:05:31;;;;;;;6.65;4.47;;;;;;;1.52;100.00;101091.98;1691942;83;21152;-79
2021/11/23 04:07:58;;;;;;;7.62;3.95;;;;;;;1.51;100.00;101090.76;1723005;83;21580;-78
2021/11/23 04:10:26;;;;;;;5.22;3.70;;;;;;;1.50;100.00;101086.05;1669083;83;21846;-78
2021/11/23 04:12:53;;;;;;;6.03;4.45;;;;;;;1.48;100.00;101087.84;1683321;83;21019;-79
2021/11/23 04:15:20;;;;;;;12.10;4.55;;;;;;;1.44;100.00;101096.50;1710939;83;21076;-78
2021/11/23 04:17:48;;;;;;;5.90;3.90;;;;;;;1.38;100.00;101100.54;1699527;83;21661;-78
2021/11/23 04:20:17;;;;;;;8.80;4.70;;;;;;;1.32;100.00;101105.40;1710731;82;21101;-80
2021/11/23 04:22:44;;;;;;;7.70;5.00;;;;;;;1.24;100.00;101097.91;1713876;83;22246;-81
2021/11/23 04:25:12;;;;;;;8.20;4.95;;;;;;;1.17;100.00;101092.55;1716009;82;21045;-82
2021/11/23 04:27:40;;;;;;;8.13;4.58;;;;;;;1.13;100.00;101090.97;1691723;83;20994;-79
2021/11/23 04:30:11;;;;;;;7.37;4.78;;;;;;;1.10;100.00;101091.05;1686930;83;21006;-79
2021/11/23 04:32:40;;;;;;;17.75;5.70;;;;;;;1.08;100.00;101090.27;1686412;83;21023;-82
2021/11/23 04:35:08;;;;;;;78.55;8.93;;;;;;;1.10;100.00;101088.48;1698204;84;21215;-79
2021/11/23 04:37:36;;;;;;;14.45;5.40;;;;;;;1.53;100.00;101092.81;1662694;84;21058;-80
2021/11/23 04:40:05;;;;;;;9.43;4.97;;;;;;;1.92;100.00;101096.80;1693777;83;21046;-81
2021/11/23 04:42:33;;;;;;;17.37;7.25;;;;;;;2.16;100.00;101105.47;1706783;83;21033;-80
2021/11/23 04:45:02;;;;;;;14.05;7.17;;;;;;;2.46;100.00;101109.20;1717489;83;20995;-79
2021/11/23 04:47:29;;;;;;;12.75;6.75;;;;;;;2.75;100.00;101104.80;1713495;83;22301;-80
2021/11/23 04:49:58;;;;;;;9.98;5.12;;;;;;;2.96;100.00;101104.50;1688309;83;21172;-80
2021/11/23 04:52:26;;;;;;;9.85;4.87;;;;;;;3.09;100.00;101101.04;1684102;84;21102;-79
2021/11/23 04:54:53;;;;;;;13.80;5.62;;;;;;;3.23;100.00;101112.13;1685317;84;21081;-79
2021/11/23 04:57:20;;;;;;;10.88;5.55;;;;;;;3.30;100.00;101111.01;1674141;84;21092;-79
2021/11/23 04:59:49;;;;;;;9.33;5.25;;;;;;;3.34;100.00;101117.70;1702262;82;21077;-80
2021/11/23 05:02:16;;;;;;;7.78;5.17;;;;;;;3.31;100.00;101112.69;1702946;83;21469;-80
2021/11/23 05:04:43;;;;;;;6.70;4.92;;;;;;;3.34;100.00;101115.13;1704543;83;21528;-81
2021/11/23 05:07:10;;;;;;;8.70;5.42;;;;;;;3.35;100.00;101112.95;1691105;83;21078;-81
2021/11/23 05:09:38;;;;;;;6.08;5.12;;;;;;;3.36;100.00;101102.23;1697967;83;21046;-81
2021/11/23 05:12:06;;;;;;;8.55;5.40;;;;;;;3.35;100.00;101116.81;1688492;84;21192;-81
2021/11/23 05:14:33;;;;;;;10.70;6.45;;;;;;;3.08;100.00;101118.66;1672081;85;21527;-80
2021/11/23 05:17:02;;;;;;;8.48;6.10;;;;;;;3.08;100.00;101118.66;1687677;85;21589;-79
2021/11/23 05:19:29;;;;;;;12.55;6.12;;;;;;;3.04;100.00;101123.08;1692160;83;21082;-79
2021/11/23 05:21:56;;;;;;;10.45;6.10;;;;;;;3.11;100.00;101125.82;1679734;84;21113;-79
2021/11/23 05:24:23;;;;;;;9.63;5.92;;;;;;;3.21;100.00;101132.75;1654241;84;21139;-79
2021/11/23 05:26:50;;;;;;;9.35;5.92;;;;;;;3.30;100.00;101136.75;1688801;83;21642;-80
2021/11/23 05:29:18;;;;;;;10.80;6.55;;;;;;;3.34;100.00;101136.19;1701141;83;21030;-79
2021/11/23 05:31:45;;;;;;;8.43;6.42;;;;;;;3.42;100.00;101147.88;1680027;84;21066;-79
2021/11/23 05:34:12;;;;;;;12.68;6.92;;;;;;;3.31;100.00;101148.73;1680569;84;21073;-79
2021/11/23 05:36:39;;;;;;;9.83;7.05;;;;;;;3.31;100.00;101148.73;1680506;84;21119;-79
2021/11/23 05:39:06;;;;;;;8.85;6.60;;;;;;;3.12;100.00;101157.56;1682128;83;21074;-79
2021/11/23 05:41:36;;;;;;;9.50;5.85;;;;;;;3.12;100.00;101157.56;1708475;83;21595;-79
2021/11/23 05:44:03;;;;;;;16.00;6.92;;;;;;;3.11;100.00;101154.12;1661935;83;21417;-79
2021/11/23 05:46:30;;;;;;;8.95;6.60;;;;;;;3.17;100.00;101150.50;1659288;85;21089;-78
2021/11/23 05:48:59;;;;;;;8.85;6.70;;;;;;;3.23;100.00;101152.85;1649557;85;21088;-78
2021/11/23 05:51:26;;;;;;;9.85;6.97;;;;;;;3.31;100.00;101155.17;1683705;85;21070;-79
2021/11/23 05:53:53;;;;;;;9.05;6.97;;;;;;;3.27;100.00;101152.30;1687825;83;21075;-79
2021/11/23 05:56:20;;;;;;;10.60;6.37;;;;;;;3.28;100.00;101155.27;1714859;83;21062;-79
2021/11/23 05:58:47;;;;;;;9.65;7.03;;;;;;;3.28;100.00;101154.84;1660761;85;21030;-79
2021/11/23 06:01:14;;;;;;;11.15;6.50;;;;;;;3.28;100.00;101154.84;1715031;83;21816;-79
2021/11/23 06:03:42;;;;;;;10.65;7.80;;;;;;;3.31;100.00;101161.14;1664997;83;21033;-79
2021/11/23 06:06:11;;;;;;;10.48;7.65;;;;;;;3.28;100.00;101157.41;1687656;85;21119;-79
2021/11/23 06:08:38;;;;;;;10.90;8.08;;;;;;;3.21;100.00;101161.53;1714128;83;21567;-79
2021/11/23 06:11:05;;;;;;;11.75;7.60;;;;;;;3.16;100.00;101166.84;1714733;83;21067;-80
2021/11/23 06:13:34;;;;;;;14.68;7.28;;;;;;;3.18;100.00;101165.05;1687457;85;22499;-79
2021/11/23 06:16:01;;;;;;;13.98;8.33;;;;;;;3.24;100.00;101165.30;1714920;83;21018;-78
2021/11/23 06:18:30;;;;;;;20.77;8.43;;;;;;;3.24;100.00;101165.30;1714926;83;21067;-79
2021/11/23 06:20:58;;;;;;;14.05;9.13;;;;;;;3.38;100.00;101163.48;1687308;85;21118;-79
2021/11/23 06:23:26;;;;;;;26.07;9.93;;;;;;;3.37;100.00;101165.66;1688676;83;21062;-79
2021/11/23 06:25:57;;;;;;;20.48;9.55;;;;;;;3.37;100.00;101165.66;1660850;85;21650;-79
2021/11/23 06:28:25;;;;;;;13.75;10.20;;;;;;;3.36;100.00;101169.98;1715104;83;21536;-79
2021/11/23 06:30:52;;;;;;;13.13;10.25;;;;;;;3.31;100.00;101163.72;1661517;85;21089;-79
2021/11/23 06:33:20;;;;;;;23.27;10.93;;;;;;;3.31;100.00;101163.72;1684579;85;21101;-79
2021/11/23 06:35:48;;;;;;;13.48;10.18;;;;;;;3.29;100.00;101164.67;1714905;83;21066;-79
2021/11/23 06:38:15;;;;;;;14.58;10.15;;;;;;;3.29;100.00;101164.67;1687421;85;22188;-79
2021/11/23 06:40:43;;;;;;;14.35;10.78;;;;;;;3.30;100.00;101174.08;1714903;83;21058;-79
2021/11/23 06:43:10;;;;;;;15.15;10.13;;;;;;;3.24;100.00;101170.44;1693214;83;21349;-78
2021/11/23 06:45:40;;;;;;;14.60;10.28;;;;;;;3.24;100.00;101170.44;1699864;84;20980;-79
2021/11/23 06:48:11;;;;;;;13.68;10.25;;;;;;;3.11;100.00;101182.44;1675726;84;21060;-79
2021/11/23 06:50:40;;;;;;;15.98;11.30;;;;;;;3.11;100.00;101182.44;1715159;83;21175;-79
2021/11/23 06:53:11;;;;;;;17.30;11.43;;;;;;;2.91;100.00;101188.73;1720318;83;21073;-79
2021/11/23 06:55:41;;;;;;;18.65;11.08;;;;;;;2.79;100.00;101184.38;1720094;83;21010;-78
2021/11/23 06:58:09;;;;;;;16.17;11.90;;;;;;;2.72;100.00;101180.79;1719893;83;21955;-80
2021/11/23 07:00:38;;;;;;;15.03;11.18;;;;;;;2.65;100.00;101182.25;1720009;83;21074;-80
2021/11/23 07:03:05;;;;;;;15.25;10.70;;;;;;;2.53;100.00;101180.92;1720173;83;21825;-79
2021/11/23 07:05:32;;;;;;;15.23;10.20;;;;;;;2.45;100.00;101182.90;1719740;83;21055;-79
2021/11/23 07:07:59;;;;;;;15.63;10.53;;;;;;;2.31;100.00;101183.78;1719973;83;21391;-79
2021/11/23 07:10:27;;;;;;;18.48;10.90;;;;;;;2.18;100.00;101186.75;1719812;83;21070;-80
2021/11/23 07:12:54;;;;;;;12.80;9.70;;;;;;;2.09;100.00;101192.17;1720211;83;21054;-80
2021/11/23 07:15:22;;;;;;;15.20;11.30;;;;;;;2.05;100.00;101193.99;1719991;83;21163;-81
2021/11/23 07:17:49;;;;;;;15.65;10.48;;;;;;;2.04;100.00;101192.30;1720022;83;21063;-82
2021/11/23 07:20:16;;;;;;;14.23;9.90;;;;;;;2.04;100.00;101200.47;1719698;83;21034;-84
2021/11/23 07:22:43;;;;;;;14.55;10.08;;;;;;;2.05;100.00;101200.42;1720171;83;21086;-82
2021/11/23 07:25:10;;;;;;;15.18;10.63;;;;;;;2.09;100.00;101205.02;1719702;83;21188;-83
2021/11/23 07:27:39;;;;;;;13.65;10.15;;;;;;;2.14;100.00;101211.30;1719663;83;21163;-83
2021/11/23 07:30:08;;;;;;;14.30;10.43;;;;;;;2.25;100.00;101205.83;1719846;83;21023;-82
2021/11/23 07:32:36;;;;;;;15.78;10.23;;;;;;;2.34;100.00;101206.37;1693172;83;21063;-83
2021/11/23 07:35:04;;;;;;;15.38;10.35;;;;;;;2.38;100.00;101203.72;1719515;83;21023;-83
2021/11/23 07:37:38;;;;;;;13.55;10.50;;;;;;;2.49;100.00;101202.49;1676031;83;21117;-84
2021/11/23 07:40:01;;;;;;;12.43;9.33;;;;;;;2.65;100.00;101208.42;1671163;84;21167;-83
2021/11/23 07:42:28;;;;;;;16.75;9.90;;;;;;;2.70;100.00;101214.25;1686810;84;21081;-84
2021/11/23 07:44:56;;;;;;;15.53;10.38;;;;;;;2.68;100.00;101206.59;1696914;83;21047;-83
2021/11/23 07:47:24;;;;;;;16.07;10.35;;;;;;;2.67;100.00;101202.80;1699324;83;21062;-83
2021/11/23 07:49:51;;;;;;;12.80;10.03;;;;;;;2.66;100.00;101202.40;1698249;83;21078;-82
2021/11/23 07:52:18;;;;;;;14.83;10.65;;;;;;;2.67;100.00;101204.08;1698221;83;21890;-82
2021/11/23 07:54:59;;;;;;;14.65;10.23;;;;;;;2.65;100.00;101200.71;1694697;83;21101;-82
2021/11/23 07:57:26;;;;;;;11.97;9.83;;;;;;;2.58;100.00;101197.95;1694561;84;21018;-82
2021/11/23 07:59:53;;;;;;;14.55;9.63;;;;;;;2.47;100.00;101209.41;1694463;84;21066;-82
2021/11/23 08:02:20;;;;;;;16.23;10.15;;;;;;;2.37;100.00;101214.44;1694473;83;21050;-80
2021/11/23 08:04:48;;;;;;;11.93;8.88;;;;;;;2.32;100.00;101213.75;1674737;83;21087;-79
2021/11/23 08:07:15;;;;;;;15.38;9.18;;;;;;;2.28;100.00;101218.14;1694422;84;21614;-80
2021/11/23 08:09:44;;;;;;;12.78;8.90;;;;;;;2.30;100.00;101218.08;1694747;84;21031;-81
2021/11/23 08:12:11;;;;;;;12.28;8.60;;;;;;;2.28;100.00;101218.59;1694577;84;21130;-80
2021/11/23 08:14:38;;;;;;;12.63;9.55;;;;;;;2.24;100.00;101216.57;1694545;84;21583;-79
2021/11/23 08:17:07;;;;;;;13.32;10.00;;;;;;;2.22;100.00;101219.63;1675070;84;21176;-79
2021/11/23 08:19:36;;;;;;;12.75;9.28;;;;;;;2.18;100.00;101213.73;1694578;84;21582;-79
2021/11/23 08:22:03;;;;;;;12.75;9.25;;;;;;;2.19;100.00;101219.28;1694486;84;21066;-79
2021/11/23 08:24:30;;;;;;;11.50;8.68;;;;;;;2.20;100.00;101212.39;1694524;84;21639;-79
2021/11/23 08:26:59;;;;;;;12.13;9.00;;;;;;;2.21;100.00;101211.05;1694512;84;21650;-79
2021/11/23 08:29:26;;;;;;;14.38;9.28;;;;;;;2.25;100.00;101216.94;1694472;83;21160;-80
2021/11/23 08:31:55;;;;;;;12.85;8.60;;;;;;;2.30;100.00;101220.23;1694634;84;21050;-79
2021/11/23 08:34:23;;;;;;;11.63;9.25;;;;;;;2.35;100.00;101217.52;1694489;84;21709;-81
2021/11/23 08:36:50;;;;;;;12.00;8.78;;;;;;;2.39;100.00;101210.09;1694375;83;21644;-79
2021/11/23 08:39:18;;;;;;;10.13;7.37;;;;;;;2.47;100.00;101212.44;1674556;84;21071;-80
2021/11/23 08:41:46;;;;;;;10.50;8.35;;;;;;;2.55;100.00;101217.31;1694368;84;21794;-80
2021/11/23 08:44:15;;;;;;;13.95;7.50;;;;;;;2.68;100.00;101204.02;1709030;83;21034;-80
2021/11/23 08:46:43;;;;;;;11.15;7.80;;;;;;;2.79;100.00;101208.81;1720429;83;21065;-78
2021/11/23 08:49:10;;;;;;;8.50;6.47;;;;;;;2.92;100.00;101206.67;1720512;83;21575;-79
2021/11/23 08:51:38;;;;;;;9.00;6.20;;;;;;;3.02;100.00;101205.91;1720402;83;21050;-79
2021/11/23 08:54:07;;;;;;;8.85;6.12;;;;;;;3.08;100.00;101199.29;1720336;83;21170;-79
2021/11/23 08:56:45;;;;;;;7.60;6.28;;;;;;;3.13;100.00;101198.67;1720688;83;21023;-79
2021/11/23 08:59:12;;;;;;;8.33;6.28;;;;;;;3.12;100.00;101191.02;1715551;83;21062;-81
2021/11/23 09:01:41;;;;;;;13.70;6.72;;;;;;;3.03;100.00;101198.59;1706919;83;21098;-79
2021/11/23 09:04:10;;;;;;;10.05;7.00;;;;;;;3.03;100.00;101198.59;1706845;82;21167;-80
2021/11/23 09:06:39;;;;;;;8.88;6.20;;;;;;;3.06;100.00;101196.34;1680313;83;21510;-79
2021/11/23 09:09:08;;;;;;;8.40;5.80;;;;;;;3.16;100.00;101194.69;1673300;83;20962;-79
2021/11/23 09:11:39;;;;;;;7.85;5.10;;;;;;;3.30;100.00;101195.95;1690174;84;21068;-78
2021/11/23 09:14:08;;;;;;;9.13;4.62;;;;;;;3.35;100.00;101205.63;1656368;84;21003;-79
2021/11/23 09:16:36;;;;;;;6.40;5.05;;;;;;;3.32;100.00;101196.75;1701767;84;21111;-78
2021/11/23 09:19:04;;;;;;;6.70;4.50;;;;;;;3.30;100.00;101190.81;1685784;84;21849;-78
2021/11/23 09:21:32;;;;;;;6.55;4.47;;;;;;;3.34;100.00;101197.52;1653755;84;21096;-78
2021/11/23 09:24:00;;;;;;;5.95;3.95;;;;;;;3.34;100.00;101197.52;1662569;84;21017;-78
2021/11/23 09:26:28;;;;;;;7.05;5.03;;;;;;;3.35;100.00;101203.52;1672784;85;21537;-79
2021/11/23 09:28:56;;;;;;;8.10;5.80;;;;;;;3.35;100.00;101219.80;1662649;84;21528;-79
2021/11/23 09:31:24;;;;;;;10.13;5.17;;;;;;;3.38;100.00;101215.84;1700794;84;21134;-79
2021/11/23 09:33:52;;;;;;;5.80;4.10;;;;;;;3.38;100.00;101215.84;1701283;84;21438;-78
2021/11/23 09:36:20;;;;;;;6.62;4.05;;;;;;;3.38;100.00;101220.98;1700479;84;21714;-80
2021/11/23 09:38:48;;;;;;;6.12;4.90;;;;;;;3.36;100.00;101216.33;1700984;84;21590;-81
2021/11/23 09:41:15;;;;;;;5.62;4.22;;;;;;;3.39;100.00;101210.23;1674959;84;21137;-80
2021/11/23 09:43:42;;;;;;;6.70;4.28;;;;;;;3.39;100.00;101205.94;1675582;84;21202;-79
2021/11/23 09:46:10;;;;;;;6.70;4.22;;;;;;;3.38;100.00;101217.13;1657842;85;21128;-79
2021/11/23 09:48:45;;;;;;;7.00;4.05;;;;;;;3.39;100.00;101208.51;1659765;83;21002;-80
2021/11/23 09:51:16;;;;;;;4.92;3.50;;;;;;;3.42;100.00;101210.13;1685922;85;21007;-78
2021/11/23 09:53:44;;;;;;;4.65;3.12;;;;;;;3.42;100.00;101216.10;1686566;85;21030;-79
2021/11/23 09:56:12;;;;;;;6.87;3.35;;;;;;;3.41;100.00;101220.86;1734022;82;21135;-78
2021/11/23 09:58:40;;;;;;;4.15;3.00;;;;;;;3.41;100.00;101220.86;1714911;83;21370;-80
2021/11/23 10:01:11;;;;;;;6.15;3.17;;;;;;;3.37;100.00;101205.14;1741489;81;22162;-78
2021/11/23 10:03:40;;;;;;;3.70;3.10;;;;;;;3.44;100.00;101211.75;1741303;81;21034;-81
2021/11/23 10:06:15;;;;;;;8.28;2.90;;;;;;;3.44;100.00;101207.89;1732435;82;21557;-78
2021/11/23 10:08:45;;;;;;;5.05;3.12;;;;;;;3.47;100.00;101219.38;1707696;83;21153;-80
2021/11/23 10:11:34;;;;;;;6.08;3.80;;;;;;;3.52;100.00;101208.05;1713152;83;21054;-79
2021/11/23 10:14:05;;;;;;;3.95;3.00;;;;;;;3.51;100.00;101220.11;1741390;82;21332;-79
2021/11/23 10:16:43;;;;;;;5.62;3.17;;;;;;;3.48;100.00;101213.30;1736457;82;22042;-79
2021/11/23 10:19:14;;;;;;;5.28;3.08;;;;;;;3.50;100.00;101218.42;1686593;83;21055;-79
2021/11/23 10:21:54;;;;;;;4.47;2.77;;;;;;;3.51;100.00;101214.95;1686596;83;21121;-79
2021/11/23 10:24:22;;;;;;;9.55;2.98;;;;;;;3.42;100.00;101221.72;1686890;85;21023;-80
2021/11/23 10:26:49;;;;;;;3.55;2.62;;;;;;;3.26;100.00;101215.82;1705101;83;21169;-81
2021/11/23 10:29:17;;;;;;;4.60;2.80;;;;;;;3.19;100.00;101217.36;1741935;82;22267;-81
2021/11/23 10:31:47;;;;;;;5.40;3.75;;;;;;;3.15;100.00;101216.20;1742065;81;21049;-81
2021/11/23 10:34:18;;;;;;;6.95;3.62;;;;;;;3.06;100.00;101214.36;1737192;82;21227;-82
2021/11/23 10:36:48;;;;;;;25.12;3.20;;;;;;;3.06;100.00;101214.36;1716313;82;21026;-82
2021/11/23 10:39:19;;;;;;;4.90;3.37;;;;;;;2.99;100.00;101219.72;1711752;83;21041;-79
2021/11/23 10:41:59;;;;;;;6.33;3.17;;;;;;;2.99;100.00;101219.72;1711511;82;21030;-80
2021/11/23 10:44:34;;;;;;;5.45;3.58;;;;;;;2.96;100.00;101216.41;1742761;81;21547;-79
2021/11/23 10:47:08;;;;;;;4.30;3.20;;;;;;;2.93;100.00;101219.08;1719328;82;21150;-80
2021/11/23 10:49:43;;;;;;;4.70;3.00;;;;;;;2.88;100.00;101223.55;1744895;81;21098;-79
2021/11/23 10:52:27;;;;;;;6.08;3.35;;;;;;;2.87;100.00;101224.00;1719512;82;21093;-79
2021/11/23 10:54:56;;;;;;;6.20;2.72;;;;;;;2.84;100.00;101215.09;1744576;81;21516;-79
2021/11/23 10:57:24;;;;;;;4.08;3.08;;;;;;;2.80;100.00;101216.92;1744456;81;21093;-79
2021/11/23 10:59:52;;;;;;;7.58;2.85;;;;;;;2.80;100.00;101216.92;1722172;82;21126;-79
2021/11/23 11:02:19;;;;;;;7.03;3.12;;;;;;;2.80;100.00;101214.81;1702315;84;21082;-79
2021/11/23 11:04:51;;;;;;;6.60;3.00;;;;;;;2.79;100.00;101213.95;1701774;84;21041;-79
2021/11/23 11:07:20;;;;;;;5.00;3.20;;;;;;;2.78;100.00;101216.13;1684333;84;21073;-78
2021/11/23 11:09:49;;;;;;;4.50;3.00;;;;;;;2.74;100.00;101217.14;1671226;84;21555;-80
2021/11/23 11:12:16;;;;;;;5.95;2.50;;;;;;;2.68;100.00;101213.48;1641457;86;21056;-80
2021/11/23 11:14:46;;;;;;;3.42;2.47;;;;;;;2.62;100.00;101223.95;1668243;86;21066;-78
2021/11/23 11:17:16;;;;;;;4.12;2.70;;;;;;;2.58;100.00;101218.52;1684692;84;21073;-80
2021/11/23 11:19:49;;;;;;;4.70;2.85;;;;;;;2.54;100.00;101215.20;1672234;84;21003;-79
2021/11/23 11:22:25;;;;;;;3.70;2.50;;;;;;;2.57;100.00;101216.83;1683361;83;21536;-79
2021/11/23 11:27:46;;;;;;;5.00;3.02;;;;;;;2.58;100.00;101215.48;1699975;84;21042;-80
2021/11/23 11:35:29;;;;;;;3.90;3.33;;;;;;;2.46;100.00;101213.32;1635682;87;21176;-79